Rhinelander, WI (54501)

9:20 PM CST on February 08, 2016 (GMT -0600)
1600 | | Change Station
CLOSE
Current Station
Personal Weather Station
Location: Rhinelander, WI
Elevation: 1600 ft
Nearby Weather Stations

Elev 1600 ft 45.64 °N, 89.44 °W | Updated 9 minutes ago

Snow
Snow
10.2 °F
Feels Like 10 °F
N
1.7
Wind Variable Wind from SSW

Today
High -- | Low -- °F
--% Chance of Precip.
Yesterday
High -- | Low -- °F
Precip. -- in
Pressure 29.84 in
Visibility 5.0 miles
Clouds Overcast 3400 ft
Windchill 10 °F
Dew Point 8 °F
Humidity 91%
Rainfall 0.00 in
Snow Depth Not available.
7:10 AM 5:13 PM
New Moon, 0% visible
METAR KRHI 090253Z AUTO 31007KT 5SM -SN OVC034 M11/M14 A2975 RMK AO2 SLP104 P0000 60000 T11111144 51001
Pressure 29.84 in
Visibility 5.0 miles
Clouds Overcast 3400 ft
Windchill 10 °F
Dew Point 8 °F
Humidity 91%
Rainfall 0.00 in
Snow Depth Not available.
7:10 AM 5:13 PM
New Moon, 0% visible
METAR KRHI 090253Z AUTO 31007KT 5SM -SN OVC034 M11/M14 A2975 RMK AO2 SLP104 P0000 60000 T11111144 51001

10-Day Weather Forecast

Almanac

Astronomy

Feb. 08, 2016 Rise Set
Actual Time
Civil Twilight
Nautical Twilight
Astronomical Twilight
Moon
Length of Visible Light
Length of Day
Tomorrow will be .
, % of the Moon is Illuminated

Today's Extremes

State Highs State Lows

Community

WunderPhotos

Upload Photos

1,891,527 photos uploaded!

WunderBlog® & News

Nearby

Air Quality

  Air Quality AQ Index Pollutant
Not available.

Snow Depth

Station Depth Elevation

Earthquake Activity

City Distance Mag. Time & Date
Minimum magnitude displayed is 2.5.

Coastal Water Temperatures

Place Temperature

Stations

Nearby Weather Stations

Station Location Temp. Windchill Dew Point Humidity Wind Precip. Elev Updated Type
                   

Watches & Warnings

There are currently no watches in effect.